Time;durP1;ratioP1;P1;durP2;ratioP2;P2;SDS_P1;SDS_P2;PMS_P1;PMS_P2;Temp;Humidity;BMP_temperature;BMP_pressure;BME280_temperature;BME280_humidity;BME280_pressure;Samples;Min_cycle;Max_cycle;Signal;HPM_P1;HPM_P2
2022/02/15 00:01:49;;;;;;;3.22;2.42;;;7.30;99.90;;;;;;5100033;28;20458;-68
2022/02/15 00:04:15;;;;;;;3.88;2.50;;;7.30;99.90;;;;;;5100924;28;20016;-68
2022/02/15 00:06:41;;;;;;;4.38;2.70;;;7.30;99.90;;;;;;5089468;28;20427;-68
2022/02/15 00:09:06;;;;;;;2.85;2.38;;;7.30;99.90;;;;;;5083399;28;20024;-68
2022/02/15 00:11:33;;;;;;;2.50;2.30;;;7.30;99.90;;;;;;5091211;28;20042;-68
2022/02/15 00:13:58;;;;;;;4.30;2.50;;;7.30;99.90;;;;;;5090034;28;20086;-68
2022/02/15 00:16:24;;;;;;;3.67;2.63;;;7.20;99.90;;;;;;5089742;28;20024;-68
2022/02/15 00:18:50;;;;;;;6.75;2.58;;;7.20;99.90;;;;;;5097866;28;20062;-68
2022/02/15 00:21:15;;;;;;;4.72;2.20;;;7.20;99.90;;;;;;5091793;28;20024;-70
2022/02/15 00:23:41;;;;;;;3.58;2.40;;;7.20;99.90;;;;;;5109145;28;20046;-68
2022/02/15 00:26:07;;;;;;;3.88;2.40;;;7.20;99.90;;;;;;5109686;28;20028;-68
2022/02/15 00:28:32;;;;;;;3.05;2.75;;;7.20;99.90;;;;;;5105146;28;20028;-68
2022/02/15 00:30:58;;;;;;;4.55;2.38;;;7.20;99.90;;;;;;5109037;28;20020;-69
2022/02/15 00:33:23;;;;;;;3.45;2.40;;;7.20;99.90;;;;;;5109502;28;20460;-68
2022/02/15 00:35:49;;;;;;;3.00;2.25;;;7.20;99.90;;;;;;5109474;28;20038;-68
2022/02/15 00:38:15;;;;;;;2.80;2.30;;;7.20;99.90;;;;;;5108809;28;20467;-68
2022/02/15 00:40:40;;;;;;;6.93;2.50;;;7.20;99.90;;;;;;5109262;28;20031;-68
2022/02/15 00:43:06;;;;;;;3.22;1.95;;;7.10;99.90;;;;;;5081822;28;20162;-68
2022/02/15 00:45:31;;;;;;;2.58;2.38;;;7.10;99.90;;;;;;5108542;28;20036;-68
2022/02/15 00:47:57;;;;;;;2.17;1.83;;;7.10;99.90;;;;;;5094112;28;20023;-68
2022/02/15 00:50:23;;;;;;;2.15;1.80;;;7.00;99.90;;;;;;5113422;28;20023;-68
2022/02/15 00:52:48;;;;;;;4.35;1.88;;;7.00;99.90;;;;;;5113324;28;20067;-68
2022/02/15 00:55:14;;;;;;;1.92;1.83;;;7.00;99.90;;;;;;5107584;28;20320;-68
2022/02/15 00:57:41;;;;;;;3.75;2.13;;;6.90;99.90;;;;;;5112589;28;20026;-68
2022/02/15 01:00:09;;;;;;;2.88;2.20;;;6.90;99.90;;;;;;5112997;28;20030;-68
2022/02/15 01:02:34;;;;;;;2.28;2.08;;;7.00;99.90;;;;;;5113417;28;20021;-68
2022/02/15 01:05:00;;;;;;;2.70;2.10;;;7.00;99.90;;;;;;5113148;28;20019;-68
2022/02/15 01:07:26;;;;;;;2.17;2.03;;;7.00;99.90;;;;;;5112274;28;20050;-68
2022/02/15 01:09:51;;;;;;;2.75;2.28;;;7.10;99.90;;;;;;5094823;28;20424;-68
2022/02/15 01:12:17;;;;;;;2.67;2.28;;;7.10;99.90;;;;;;5112941;28;20047;-68
2022/02/15 01:14:43;;;;;;;2.20;2.00;;;7.10;99.90;;;;;;5113181;28;20335;-68
2022/02/15 01:17:08;;;;;;;1.90;1.80;;;7.10;99.90;;;;;;5107640;28;20129;-68
2022/02/15 01:19:34;;;;;;;3.30;2.20;;;7.10;99.90;;;;;;5112806;28;20031;-68
2022/02/15 01:22:00;;;;;;;3.00;2.45;;;7.10;99.90;;;;;;5112274;28;20031;-68
2022/02/15 01:24:25;;;;;;;2.42;2.22;;;7.10;99.90;;;;;;5093099;28;20047;-68
2022/02/15 01:26:51;;;;;;;3.75;2.15;;;7.10;99.90;;;;;;5104202;27;20019;-68
2022/02/15 01:29:16;;;;;;;4.97;2.30;;;7.10;99.90;;;;;;5132434;27;20088;-68
2022/02/15 01:31:42;;;;;;;5.40;2.30;;;7.00;99.90;;;;;;5116310;27;20061;-68
2022/02/15 01:34:08;;;;;;;7.63;2.85;;;7.00;99.90;;;;;;5112642;28;20133;-68
2022/02/15 01:36:33;;;;;;;4.07;2.30;;;7.00;99.90;;;;;;5094143;28;20024;-68
2022/02/15 01:38:59;;;;;;;4.22;2.35;;;7.00;99.90;;;;;;5111609;28;20198;-68
2022/02/15 01:41:24;;;;;;;3.15;2.13;;;6.90;99.90;;;;;;5112409;28;20024;-68
2022/02/15 01:43:51;;;;;;;2.78;2.35;;;6.90;99.90;;;;;;5094542;28;20085;-68
2022/02/15 01:46:16;;;;;;;2.88;2.13;;;6.80;99.90;;;;;;5112018;28;20027;-68
2022/02/15 01:48:46;;;;;;;4.55;2.40;;;6.80;99.90;;;;;;5111607;28;20031;-68
2022/02/15 01:51:13;;;;;;;5.80;2.20;;;6.80;99.90;;;;;;5112108;28;20054;-68
2022/02/15 01:53:39;;;;;;;3.13;2.28;;;6.80;99.90;;;;;;5110970;28;20100;-68
2022/02/15 01:56:08;;;;;;;3.17;2.47;;;6.80;99.90;;;;;;5112114;28;20019;-68
2022/02/15 01:58:34;;;;;;;2.80;2.50;;;6.90;99.90;;;;;;5111054;28;20031;-68
2022/02/15 02:01:00;;;;;;;2.85;2.20;;;6.80;99.90;;;;;;5094403;28;20032;-68
2022/02/15 02:03:25;;;;;;;3.45;2.08;;;6.90;99.90;;;;;;5111971;28;20036;-68
2022/02/15 02:05:51;;;;;;;2.65;2.40;;;6.80;99.90;;;;;;5112323;28;20039;-68
2022/02/15 02:08:22;;;;;;;2.00;1.90;;;6.80;99.90;;;;;;5110837;28;20471;-68
2022/02/15 02:10:49;;;;;;;3.95;2.47;;;6.80;99.90;;;;;;5112157;28;20106;-68
2022/02/15 02:13:15;;;;;;;2.88;2.40;;;6.80;99.90;;;;;;5112284;28;20020;-68
2022/02/15 02:15:43;;;;;;;3.50;2.17;;;6.80;99.90;;;;;;5111740;28;20727;-68
2022/02/15 02:18:09;;;;;;;5.30;2.45;;;6.80;99.90;;;;;;5110885;28;20548;-68
2022/02/15 02:20:35;;;;;;;2.42;2.22;;;6.80;99.90;;;;;;5110961;28;20061;-68
2022/02/15 02:23:01;;;;;;;5.78;2.25;;;6.70;99.90;;;;;;5093636;28;20039;-68
2022/02/15 02:25:27;;;;;;;2.22;2.03;;;6.70;99.90;;;;;;5114951;27;20516;-68
2022/02/15 02:27:52;;;;;;;2.15;2.00;;;6.70;99.90;;;;;;5131125;27;20383;-68
2022/02/15 02:30:19;;;;;;;2.75;2.13;;;6.70;99.90;;;;;;5114657;27;20038;-68
2022/02/15 02:32:45;;;;;;;2.40;2.00;;;6.60;99.90;;;;;;5111093;28;20032;-68
2022/02/15 02:35:11;;;;;;;4.35;2.15;;;6.60;99.90;;;;;;5111711;28;20050;-68
2022/02/15 02:37:37;;;;;;;3.53;2.30;;;6.60;99.90;;;;;;5110072;28;20421;-68
2022/02/15 02:40:06;;;;;;;3.03;2.42;;;6.60;99.90;;;;;;5111603;28;20027;-68
2022/02/15 02:42:32;;;;;;;2.50;2.20;;;6.50;99.90;;;;;;5093250;28;20059;-68
2022/02/15 02:45:01;;;;;;;2.58;2.38;;;6.50;99.90;;;;;;5111703;28;20038;-68
2022/02/15 02:47:27;;;;;;;4.53;2.25;;;6.40;99.90;;;;;;5110460;28;20036;-68
2022/02/15 02:49:54;;;;;;;3.20;2.30;;;6.40;99.90;;;;;;5111207;28;20024;-68
2022/02/15 02:52:20;;;;;;;3.65;2.42;;;6.40;99.90;;;;;;5111338;28;20066;-68
2022/02/15 02:54:46;;;;;;;3.60;2.30;;;6.40;99.90;;;;;;5101686;28;20475;-68
2022/02/15 02:57:13;;;;;;;2.40;2.20;;;6.40;99.90;;;;;;5084243;28;20067;-68
2022/02/15 02:59:43;;;;;;;4.47;2.30;;;6.40;99.90;;;;;;5111070;28;20055;-68
2022/02/15 03:02:09;;;;;;;3.13;2.30;;;6.30;99.90;;;;;;5110921;28;20080;-67
2022/02/15 03:04:36;;;;;;;3.55;2.17;;;6.30;99.90;;;;;;5110387;28;20051;-68
2022/02/15 03:07:03;;;;;;;2.88;2.03;;;6.30;99.90;;;;;;5110164;28;20019;-68
2022/02/15 03:09:28;;;;;;;4.90;2.10;;;6.30;99.90;;;;;;5092669;28;20027;-68
2022/02/15 03:11:54;;;;;;;2.85;2.10;;;6.20;99.90;;;;;;5110917;28;20023;-68
2022/02/15 03:14:20;;;;;;;3.17;2.08;;;6.20;99.90;;;;;;5110703;28;20106;-68
2022/02/15 03:16:45;;;;;;;2.38;2.17;;;6.20;99.90;;;;;;5110892;28;20487;-68
2022/02/15 03:19:11;;;;;;;2.72;2.00;;;6.20;99.90;;;;;;5109509;28;20026;-68
2022/02/15 03:21:37;;;;;;;2.47;2.22;;;6.20;99.90;;;;;;5111061;28;20019;-68
2022/02/15 03:24:03;;;;;;;2.10;1.90;;;6.20;99.90;;;;;;5109882;28;20499;-68
2022/02/15 03:26:29;;;;;;;2.38;2.17;;;6.20;99.90;;;;;;5107153;28;20051;-68
2022/02/15 03:28:54;;;;;;;2.10;1.95;;;6.20;99.90;;;;;;5107984;28;20062;-68
2022/02/15 03:31:20;;;;;;;3.92;2.10;;;6.20;99.90;;;;;;5110845;28;20076;-68
2022/02/15 03:33:46;;;;;;;2.38;1.90;;;6.20;99.90;;;;;;5102045;28;20073;-68
2022/02/15 03:36:13;;;;;;;2.38;2.17;;;6.20;99.90;;;;;;5109776;28;20023;-68
2022/02/15 03:38:38;;;;;;;2.63;1.92;;;6.10;99.90;;;;;;5109732;28;20213;-68
2022/02/15 03:43:48;;;;;;;4.10;1.85;;;6.10;99.90;;;;;;5110855;28;20053;-68
2022/02/15 03:46:13;;;;;;;3.70;2.10;;;6.00;99.90;;;;;;5092049;28;20027;-68
2022/02/15 03:48:39;;;;;;;3.42;2.03;;;6.00;99.90;;;;;;5091260;28;20035;-68
2022/02/15 03:51:05;;;;;;;3.45;1.95;;;6.00;99.90;;;;;;5110387;28;20038;-68
2022/02/15 03:53:30;;;;;;;2.25;1.98;;;6.00;99.90;;;;;;5109881;28;20147;-67
2022/02/15 03:55:56;;;;;;;1.90;1.73;;;5.90;99.90;;;;;;5109986;28;20524;-68
2022/02/15 03:58:22;;;;;;;2.47;1.75;;;5.90;99.90;;;;;;5108716;28;20019;-68
2022/02/15 04:00:47;;;;;;;2.28;2.08;;;5.90;99.90;;;;;;5092191;28;20043;-68
2022/02/15 04:03:13;;;;;;;2.40;2.20;;;5.90;99.90;;;;;;5109984;28;20123;-68
2022/02/15 04:05:39;;;;;;;2.25;1.98;;;5.90;99.90;;;;;;5110307;28;20034;-68
2022/02/15 04:08:04;;;;;;;2.80;2.15;;;5.90;99.90;;;;;;5109492;28;20424;-68
2022/02/15 04:10:30;;;;;;;1.90;1.80;;;5.90;99.90;;;;;;5109406;28;20506;-68
2022/02/15 04:12:56;;;;;;;2.33;2.10;;;5.90;99.90;;;;;;5091705;28;20047;-68
2022/02/15 04:15:21;;;;;;;2.22;1.90;;;6.00;99.90;;;;;;5091820;28;20055;-68
2022/02/15 04:17:48;;;;;;;2.60;1.83;;;6.00;99.90;;;;;;5111587;28;20024;-68
2022/02/15 04:20:15;;;;;;;1.67;1.58;;;6.10;99.90;;;;;;5114289;28;20027;-68
2022/02/15 04:22:42;;;;;;;1.95;1.85;;;6.10;99.90;;;;;;5114190;28;20181;-68
2022/02/15 04:25:09;;;;;;;2.30;2.10;;;6.10;99.90;;;;;;5112096;27;20016;-68
2022/02/15 04:27:35;;;;;;;2.10;1.90;;;6.20;99.90;;;;;;5127004;27;20108;-68
2022/02/15 04:30:02;;;;;;;2.75;2.08;;;6.20;99.90;;;;;;5114655;28;20081;-68
2022/02/15 04:32:27;;;;;;;2.85;2.15;;;6.10;99.90;;;;;;5094907;28;20034;-68
2022/02/15 04:34:53;;;;;;;2.33;1.98;;;6.20;99.90;;;;;;5114333;28;20019;-68
2022/02/15 04:37:18;;;;;;;3.90;2.10;;;6.20;99.90;;;;;;5112944;28;20096;-68
2022/02/15 04:39:44;;;;;;;3.00;1.77;;;6.20;99.90;;;;;;5113940;28;20022;-68
2022/02/15 04:42:10;;;;;;;2.92;2.15;;;6.20;99.90;;;;;;5113968;28;20058;-68
2022/02/15 04:44:36;;;;;;;2.65;1.77;;;6.20;99.90;;;;;;5113797;28;20460;-68
2022/02/15 04:47:03;;;;;;;3.80;1.80;;;6.20;99.90;;;;;;5112741;28;20032;-68
2022/02/15 04:49:28;;;;;;;1.70;1.52;;;6.20;99.90;;;;;;5113675;28;20024;-67
2022/02/15 04:51:54;;;;;;;2.05;1.80;;;6.20;99.90;;;;;;5113755;28;20027;-68
2022/02/15 04:54:22;;;;;;;1.90;1.55;;;6.20;99.90;;;;;;5089439;28;20414;-68
2022/02/15 04:56:48;;;;;;;5.35;1.90;;;6.20;99.90;;;;;;5101244;28;20081;-68
2022/02/15 04:59:14;;;;;;;2.05;1.60;;;6.20;99.90;;;;;;5074362;28;20384;-68
2022/02/15 05:01:39;;;;;;;3.08;1.42;;;6.20;99.90;;;;;;5111002;28;20052;-68
2022/02/15 05:04:05;;;;;;;3.95;1.70;;;6.20;99.90;;;;;;5113354;28;20034;-68
2022/02/15 05:06:30;;;;;;;4.70;1.80;;;6.20;99.90;;;;;;5094155;28;20165;-68
2022/02/15 05:08:56;;;;;;;1.60;1.50;;;6.10;99.90;;;;;;5111663;28;20024;-68
2022/02/15 05:11:21;;;;;;;2.53;1.65;;;6.10;99.90;;;;;;5112835;28;20035;-68
2022/02/15 05:13:47;;;;;;;2.50;1.45;;;6.10;99.90;;;;;;5112335;28;20031;-68
2022/02/15 05:16:13;;;;;;;2.50;1.83;;;6.20;99.90;;;;;;5112607;28;20325;-68
2022/02/15 05:18:39;;;;;;;3.53;1.90;;;6.10;99.90;;;;;;5112784;28;20087;-68
2022/02/15 05:21:04;;;;;;;3.17;1.98;;;6.10;99.90;;;;;;5113256;28;20020;-68
2022/02/15 05:23:31;;;;;;;4.20;1.98;;;6.10;99.90;;;;;;5074170;22;20131;-67
2022/02/15 05:25:57;;;;;;;2.95;1.95;;;6.10;99.90;;;;;;5070528;28;20024;-67
2022/02/15 05:28:24;;;;;;;5.07;1.92;;;6.20;99.90;;;;;;5054197;28;20028;-67
2022/02/15 05:30:49;;;;;;;3.47;2.10;;;6.20;99.90;;;;;;5052665;28;20431;-67
2022/02/15 05:33:15;;;;;;;3.25;2.15;;;6.20;99.90;;;;;;5053317;28;20037;-67
2022/02/15 05:35:41;;;;;;;5.28;2.05;;;6.20;99.90;;;;;;5054204;28;20514;-67
2022/02/15 05:38:06;;;;;;;3.78;2.10;;;6.20;99.90;;;;;;5052758;28;20409;-67
2022/02/15 05:40:32;;;;;;;6.22;2.28;;;6.20;99.90;;;;;;5053874;28;20072;-67
2022/02/15 05:42:58;;;;;;;4.50;2.25;;;6.20;99.90;;;;;;5053921;28;20089;-67
2022/02/15 05:45:24;;;;;;;4.82;2.03;;;6.20;99.90;;;;;;5054356;28;20438;-67
2022/02/15 05:47:50;;;;;;;5.05;2.42;;;6.30;99.90;;;;;;5052692;28;20029;-67
2022/02/15 05:53:00;;;;;;;4.07;1.90;;;6.30;99.90;;;;;;5053957;28;20056;-68
2022/02/15 05:55:25;;;;;;;4.72;2.13;;;6.20;99.90;;;;;;5054069;28;20024;-67
2022/02/15 05:57:51;;;;;;;2.08;1.88;;;6.20;99.90;;;;;;5053341;28;20066;-67
2022/02/15 06:00:17;;;;;;;2.45;1.92;;;6.30;99.90;;;;;;5054279;28;20051;-67
2022/02/15 06:02:43;;;;;;;5.85;2.50;;;6.20;99.90;;;;;;5055496;28;20092;-67
2022/02/15 06:05:09;;;;;;;4.03;2.50;;;6.20;99.90;;;;;;5053903;28;20441;-67
2022/02/15 06:07:35;;;;;;;2.97;2.00;;;6.20;99.90;;;;;;5050031;28;20021;-67
2022/02/15 06:10:01;;;;;;;3.78;2.50;;;6.10;99.90;;;;;;5050071;28;20041;-68
2022/02/15 06:12:26;;;;;;;6.55;2.25;;;6.10;99.90;;;;;;5053511;28;20174;-67
2022/02/15 06:14:52;;;;;;;3.40;2.30;;;6.00;99.90;;;;;;5053501;28;20045;-67
2022/02/15 06:17:17;;;;;;;2.85;2.15;;;5.90;99.90;;;;;;5051345;28;20064;-67
2022/02/15 06:19:43;;;;;;;2.47;1.98;;;5.90;99.90;;;;;;5053308;28;20481;-68
2022/02/15 06:22:08;;;;;;;3.53;1.63;;;5.80;99.90;;;;;;5052394;28;20028;-67
2022/02/15 06:24:34;;;;;;;3.85;1.75;;;5.80;99.90;;;;;;5053446;28;20025;-67
2022/02/15 06:27:02;;;;;;;1.80;1.63;;;5.80;99.90;;;;;;5045740;28;20104;-67
2022/02/15 06:29:34;;;;;;;11.23;5.80;;;5.90;99.90;;;;;;5046688;28;20120;-67
2022/02/15 06:32:00;;;;;;;;;;;5.90;99.90;;;;;;5051700;28;20496;-67
2022/02/15 06:34:26;;;;;;;1.95;1.75;;;5.90;99.90;;;;;;5052565;28;19913;-68
2022/02/15 06:36:52;;;;;;;2.30;2.03;;;5.90;99.90;;;;;;5052772;28;20496;-67
2022/02/15 06:39:19;;;;;;;3.42;1.83;;;5.90;99.90;;;;;;5051626;28;20029;-67
2022/02/15 06:41:45;;;;;;;3.08;1.88;;;5.90;99.90;;;;;;5052748;28;20029;-67
2022/02/15 06:44:11;;;;;;;5.88;2.17;;;5.90;99.90;;;;;;5051686;28;20028;-67
2022/02/15 06:46:37;;;;;;;8.18;3.28;;;5.90;99.90;;;;;;5050461;28;20033;-66
2022/02/15 06:49:04;;;;;;;5.65;2.95;;;5.90;99.90;;;;;;5049577;28;20119;-67
2022/02/15 06:51:30;;;;;;;2.20;1.40;;;5.90;99.90;;;;;;5049924;28;20032;-67
2022/02/15 06:53:56;;;;;;;2.00;1.60;;;5.90;99.90;;;;;;5050809;28;20033;-67
2022/02/15 06:56:22;;;;;;;2.45;1.67;;;5.90;99.90;;;;;;5051095;28;20087;-68
2022/02/15 06:58:48;;;;;;;3.08;1.70;;;6.00;99.90;;;;;;5051284;28;20025;-68
2022/02/15 07:01:14;;;;;;;2.40;1.70;;;6.00;99.90;;;;;;5051582;28;20420;-68
2022/02/15 07:03:39;;;;;;;2.90;1.92;;;6.00;99.90;;;;;;5051508;28;20029;-68
2022/02/15 07:06:05;;;;;;;4.97;2.88;;;6.00;99.90;;;;;;5051090;28;20040;-68
2022/02/15 07:08:31;;;;;;;3.50;2.08;;;6.00;99.90;;;;;;5050204;28;20457;-67
2022/02/15 07:10:57;;;;;;;4.68;2.25;;;6.00;99.90;;;;;;5050213;28;20381;-67
2022/02/15 07:13:25;;;;;;;3.40;2.00;;;6.00;99.90;;;;;;5049456;28;20524;-67
2022/02/15 07:15:51;;;;;;;3.45;2.20;;;6.00;99.90;;;;;;5050797;28;20112;-68
2022/02/15 07:18:17;;;;;;;6.15;2.33;;;6.00;99.90;;;;;;5049930;28;20056;-67
2022/02/15 07:20:42;;;;;;;4.72;1.85;;;6.00;99.90;;;;;;5051113;28;20067;-67
2022/02/15 07:23:10;;;;;;;5.32;2.05;;;6.00;99.90;;;;;;5050028;28;20029;-67
2022/02/15 07:25:37;;;;;;;3.13;2.00;;;6.00;99.90;;;;;;5046890;28;20196;-68
2022/02/15 07:28:03;;;;;;;4.60;2.53;;;6.00;99.90;;;;;;5044143;28;20590;-67
2022/02/15 07:30:29;;;;;;;3.08;1.80;;;6.00;99.90;;;;;;5055650;28;20029;-67
2022/02/15 07:32:55;;;;;;;3.05;1.80;;;6.00;99.90;;;;;;5050643;28;20105;-68
2022/02/15 07:35:21;;;;;;;3.97;1.98;;;6.00;99.90;;;;;;5046953;28;20025;-68
2022/02/15 07:37:51;;;;;;;1.90;1.70;;;6.00;99.90;;;;;;5049623;28;20086;-67
2022/02/15 07:40:21;;;;;;;3.03;1.52;;;6.00;99.90;;;;;;5049955;28;20053;-68
2022/02/15 07:42:48;;;;;;;2.25;1.60;;;6.10;99.90;;;;;;5050606;28;20107;-65
2022/02/15 07:45:17;;;;;;;3.10;1.50;;;6.10;99.90;;;;;;5049503;28;20279;-68
2022/02/15 07:47:53;;;;;;;2.67;1.65;;;6.10;99.90;;;;;;5038427;28;20098;-66
2022/02/15 07:50:21;;;;;;;4.35;2.30;;;6.10;99.90;;;;;;5050377;28;20025;-66
2022/02/15 07:52:50;;;;;;;4.93;2.10;;;6.10;99.90;;;;;;5047111;28;20517;-65
2022/02/15 07:55:17;;;;;;;2.95;1.90;;;6.00;99.90;;;;;;5050504;28;20016;-68
2022/02/15 07:57:43;;;;;;;4.75;1.73;;;6.00;99.90;;;;;;5046515;28;20021;-65
2022/02/15 08:00:10;;;;;;;4.40;1.95;;;6.10;99.90;;;;;;5046506;28;20027;-65
2022/02/15 08:02:35;;;;;;;2.85;1.67;;;6.10;99.90;;;;;;5047930;28;20083;-65
2022/02/15 08:05:01;;;;;;;7.03;2.00;;;6.10;99.90;;;;;;5046414;28;20033;-65
2022/02/15 08:07:34;;;;;;;4.22;1.60;;;6.10;99.90;;;;;;5048432;28;20028;-65
2022/02/15 08:10:00;;;;;;;2.55;1.52;;;6.10;99.90;;;;;;5050059;28;20041;-65
2022/02/15 08:12:26;;;;;;;3.85;1.67;;;6.10;99.90;;;;;;5049287;28;20091;-65
2022/02/15 08:14:51;;;;;;;2.95;1.95;;;6.10;99.90;;;;;;5053783;28;20082;-65
2022/02/15 08:17:17;;;;;;;3.90;1.90;;;6.10;99.90;;;;;;5060022;28;20033;-65
2022/02/15 08:19:42;;;;;;;2.75;2.00;;;6.10;99.90;;;;;;5055042;28;20029;-67
2022/02/15 08:22:08;;;;;;;11.57;5.32;;;6.10;99.90;;;;;;5055913;28;20040;-65
2022/02/15 08:24:34;;;;;;;11.40;4.05;;;6.10;99.90;;;;;;5050873;28;20051;-66
2022/02/15 08:27:01;;;;;;;5.80;2.70;;;6.10;99.90;;;;;;5048129;28;20017;-66
2022/02/15 08:29:27;;;;;;;7.05;2.53;;;6.10;99.90;;;;;;5048872;28;20477;-66
2022/02/15 08:31:53;;;;;;;2.30;2.10;;;6.10;99.90;;;;;;5048397;28;20024;-66
2022/02/15 08:34:19;;;;;;;4.47;1.95;;;6.10;99.90;;;;;;5042590;28;20039;-66
2022/02/15 08:36:45;;;;;;;4.47;3.10;;;6.10;99.90;;;;;;5046008;28;20025;-66
2022/02/15 08:39:11;;;;;;;5.15;2.20;;;6.10;99.90;;;;;;5046178;28;20374;-66
2022/02/15 08:41:38;;;;;;;3.75;2.35;;;6.10;99.90;;;;;;5048176;28;20029;-66
2022/02/15 08:44:04;;;;;;;4.53;2.22;;;6.10;99.90;;;;;;5036679;28;20025;-65
2022/02/15 08:46:31;;;;;;;6.05;2.20;;;6.20;99.90;;;;;;5040994;28;20028;-66
2022/02/15 08:48:56;;;;;;;2.58;2.17;;;6.20;99.90;;;;;;5043866;28;20094;-66
2022/02/15 08:51:22;;;;;;;1.83;1.73;;;6.20;99.90;;;;;;5049348;28;20096;-66
2022/02/15 08:53:50;;;;;;;4.75;3.00;;;6.30;99.90;;;;;;5042986;28;20465;-66
2022/02/15 08:56:17;;;;;;;22.85;12.40;;;6.40;99.90;;;;;;5048786;28;20013;-66
2022/02/15 08:58:42;;;;;;;24.48;12.65;;;6.40;99.90;;;;;;5048662;28;20059;-66
2022/02/15 09:01:09;;;;;;;14.57;8.05;;;6.60;99.90;;;;;;5041820;28;20017;-66
2022/02/15 09:03:35;;;;;;;9.60;6.43;;;6.60;99.90;;;;;;5050712;28;20499;-66
2022/02/15 09:06:01;;;;;;;8.15;5.90;;;6.60;99.90;;;;;;5052150;28;20048;-66
2022/02/15 09:08:27;;;;;;;10.18;8.07;;;6.60;99.90;;;;;;5052197;28;20060;-67
2022/02/15 09:10:53;;;;;;;7.85;3.83;;;6.60;99.90;;;;;;5045350;28;20045;-66
2022/02/15 09:13:19;;;;;;;4.53;3.40;;;6.60;99.90;;;;;;5047423;28;20032;-66
2022/02/15 09:15:44;;;;;;;9.27;6.60;;;6.60;99.90;;;;;;5052283;28;20037;-67
2022/02/15 09:18:10;;;;;;;5.60;3.53;;;6.60;99.90;;;;;;5051074;28;20082;-67
2022/02/15 09:20:36;;;;;;;3.22;2.90;;;6.70;99.90;;;;;;5052377;28;21694;-68
2022/02/15 09:23:02;;;;;;;2.75;2.50;;;6.70;99.90;;;;;;5054628;28;20804;-66
2022/02/15 09:25:28;;;;;;;2.83;2.20;;;6.70;99.90;;;;;;5065885;28;20116;-66
2022/02/15 09:27:54;;;;;;;3.08;2.78;;;6.60;99.90;;;;;;5045510;28;20543;-66
2022/02/15 09:30:19;;;;;;;3.88;2.75;;;6.60;99.90;;;;;;5052523;28;20051;-66
2022/02/15 09:32:45;;;;;;;4.90;3.28;;;6.60;99.90;;;;;;5051188;28;20036;-66
2022/02/15 09:35:10;;;;;;;6.25;3.70;;;6.60;99.90;;;;;;5051456;28;20027;-66
2022/02/15 09:37:36;;;;;;;5.80;4.10;;;6.60;99.90;;;;;;5045883;28;20009;-66
2022/02/15 09:40:03;;;;;;;5.72;4.40;;;6.60;99.90;;;;;;5051818;28;20529;-66
2022/02/15 09:42:29;;;;;;;4.78;4.00;;;6.60;99.90;;;;;;5051767;28;20049;-67
2022/02/15 09:44:55;;;;;;;6.63;3.60;;;6.70;99.90;;;;;;5044865;28;20060;-67
2022/02/15 09:47:25;;;;;;;6.63;4.88;;;6.70;99.90;;;;;;5048853;28;20056;-68
2022/02/15 09:49:52;;;;;;;7.28;4.68;;;6.70;99.90;;;;;;5051936;28;20017;-67
2022/02/15 09:52:26;;;;;;;9.65;4.20;;;6.80;99.90;;;;;;5051862;28;20056;-68
2022/02/15 09:54:52;;;;;;;6.78;4.15;;;6.80;99.90;;;;;;5051014;28;20060;-65
2022/02/15 09:57:19;;;;;;;5.85;4.68;;;6.90;99.90;;;;;;5051217;28;20020;-65
2022/02/15 09:59:47;;;;;;;5.35;4.40;;;6.80;99.90;;;;;;5045783;28;20025;-65
2022/02/15 10:02:17;;;;;;;9.07;4.10;;;6.90;99.90;;;;;;5042205;28;20028;-67
2022/02/15 10:04:42;;;;;;;5.43;4.57;;;6.90;99.90;;;;;;5032318;28;20029;-65
2022/02/15 10:07:09;;;;;;;6.28;4.40;;;7.00;99.90;;;;;;5047638;28;20376;-64
2022/02/15 10:09:35;;;;;;;5.20;3.75;;;7.00;99.90;;;;;;5052384;28;20039;-67
2022/02/15 10:12:14;;;;;;;7.10;4.50;;;7.00;99.90;;;;;;5051754;28;20520;-67
2022/02/15 10:14:42;;;;;;;4.88;4.10;;;7.00;99.90;;;;;;5048385;28;20035;-67
2022/02/15 10:17:10;;;;;;;7.05;4.22;;;7.00;99.90;;;;;;5049657;28;20541;-67
2022/02/15 10:19:36;;;;;;;4.80;3.88;;;7.00;99.90;;;;;;5045666;28;20020;-67
2022/02/15 10:22:04;;;;;;;5.95;4.65;;;7.00;99.90;;;;;;5050865;28;20040;-68
2022/02/15 10:24:32;;;;;;;6.20;5.00;;;7.00;99.90;;;;;;5051244;28;20053;-68
2022/02/15 10:26:59;;;;;;;4.38;3.97;;;7.00;99.90;;;;;;5050405;28;20090;-67
2022/02/15 10:29:27;;;;;;;7.03;4.18;;;7.00;99.90;;;;;;5051358;28;20501;-67
2022/02/15 10:32:00;;;;;;;5.75;4.80;;;7.00;99.90;;;;;;5051523;28;20063;-67
2022/02/15 10:34:27;;;;;;;7.45;4.20;;;7.00;99.90;;;;;;5051228;28;20117;-67
2022/02/15 10:37:04;;;;;;;6.70;5.80;;;7.00;99.90;;;;;;5037553;28;20046;-67
2022/02/15 10:39:44;;;;;;;16.05;8.82;;;7.00;99.90;;;;;;5050929;28;20017;-67
2022/02/15 10:42:18;;;;;;;8.75;5.78;;;7.10;99.90;;;;;;5051373;28;20032;-67
2022/02/15 10:45:08;;;;;;;7.43;4.10;;;7.10;99.90;;;;;;5051187;28;20021;-67
2022/02/15 10:47:40;;;;;;;4.88;3.47;;;7.10;99.90;;;;;;5047243;28;20102;-67
2022/02/15 10:50:08;;;;;;;6.20;3.78;;;7.10;99.90;;;;;;5050712;28;20024;-67
2022/02/15 10:52:35;;;;;;;8.38;5.57;;;7.10;99.90;;;;;;5050162;28;20040;-66
2022/02/15 10:55:01;;;;;;;15.70;9.30;;;7.20;99.90;;;;;;5049239;28;20017;-67
2022/02/15 10:57:28;;;;;;;4.85;3.45;;;7.20;99.90;;;;;;5050156;28;20473;-67
2022/02/15 10:59:55;;;;;;;7.15;6.05;;;7.20;99.90;;;;;;5050506;28;20087;-67
2022/02/15 11:02:26;;;;;;;3.80;3.33;;;7.20;99.90;;;;;;5048501;28;20126;-67
2022/02/15 11:04:57;;;;;;;6.10;4.10;;;7.20;99.90;;;;;;5050552;28;20048;-67
2022/02/15 11:07:25;;;;;;;10.43;5.95;;;7.20;99.90;;;;;;5042540;28;20021;-66
2022/02/15 11:10:12;;;;;;;5.35;3.83;;;7.20;99.90;;;;;;5044299;28;20100;-68
2022/02/15 11:12:44;;;;;;;4.35;3.35;;;7.20;99.90;;;;;;5041513;28;20492;-66
2022/02/15 11:15:11;;;;;;;5.43;4.20;;;7.20;99.90;;;;;;5049322;28;20017;-66
2022/02/15 11:17:56;;;;;;;5.10;4.00;;;7.20;99.90;;;;;;5047727;28;20027;-67
2022/02/15 11:20:27;;;;;;;5.50;3.38;;;7.10;99.90;;;;;;5048416;28;20024;-67
2022/02/15 11:22:55;;;;;;;6.10;4.78;;;7.10;99.90;;;;;;5117848;22;20837;-70
2022/02/15 11:25:37;;;;;;;5.75;4.07;;;7.10;99.90;;;;;;5063182;28;20031;-68
2022/02/15 11:28:11;;;;;;;5.55;4.45;;;7.20;99.90;;;;;;5065725;28;20017;-68
2022/02/15 11:30:57;;;;;;;6.82;3.90;;;7.20;99.90;;;;;;5067389;28;20155;-70
2022/02/15 11:33:38;;;;;;;5.85;4.20;;;7.20;99.90;;;;;;5059722;28;20081;-69
2022/02/15 11:36:08;;;;;;;4.32;3.20;;;7.20;99.90;;;;;;5059339;28;20124;-68
2022/02/15 11:38:36;;;;;;;3.50;3.20;;;7.20;99.90;;;;;;5066344;28;20016;-70
2022/02/15 11:41:06;;;;;;;5.55;3.08;;;7.20;99.90;;;;;;5070178;28;20103;-68
2022/02/15 11:43:34;;;;;;;4.10;2.80;;;7.20;99.90;;;;;;5069997;28;20031;-69
2022/02/15 11:46:01;;;;;;;7.82;3.00;;;7.10;99.90;;;;;;5081046;28;20533;-68
2022/02/15 11:48:39;;;;;;;4.57;2.90;;;7.00;99.90;;;;;;5068586;28;20475;-69
2022/02/15 11:51:22;;;;;;;3.42;3.03;;;7.10;99.90;;;;;;5070035;28;20032;-69
2022/02/15 11:53:53;;;;;;;3.85;3.20;;;7.00;99.90;;;;;;5069631;28;20032;-68
2022/02/15 11:56:19;;;;;;;3.45;3.03;;;7.00;99.90;;;;;;5070496;28;20086;-68
2022/02/15 11:58:49;;;;;;;9.93;3.38;;;7.00;99.90;;;;;;5069129;28;20024;-69
2022/02/15 12:01:29;;;;;;;3.90;2.90;;;7.00;99.90;;;;;;5069814;28;20048;-69
2022/02/15 12:04:00;;;;;;;3.15;2.20;;;7.00;99.90;;;;;;5069394;28;20074;-69
2022/02/15 12:06:37;;;;;;;3.78;2.38;;;7.00;99.90;;;;;;5069579;28;20098;-69
2022/02/15 12:09:03;;;;;;;6.13;3.30;;;7.00;99.90;;;;;;5069344;28;20029;-68
2022/02/15 12:11:33;;;;;;;4.95;3.45;;;7.10;99.90;;;;;;5069715;28;20490;-69
2022/02/15 12:14:13;;;;;;;3.40;2.70;;;7.10;99.90;;;;;;5068862;28;20025;-69
2022/02/15 12:16:41;;;;;;;3.22;2.20;;;7.10;99.90;;;;;;5078901;28;20031;-68
2022/02/15 12:19:07;;;;;;;6.20;2.90;;;7.20;99.90;;;;;;5067633;28;20630;-68
2022/02/15 12:21:40;;;;;;;3.53;2.60;;;7.20;99.90;;;;;;5087099;28;20103;-68
2022/02/15 12:24:07;;;;;;;4.20;2.35;;;7.20;99.90;;;;;;5066449;28;20040;-69
2022/02/15 12:26:38;;;;;;;2.65;2.40;;;7.30;99.90;;;;;;5054448;28;20800;-68
2022/02/15 12:29:05;;;;;;;2.88;2.15;;;7.30;99.90;;;;;;5061392;28;20036;-68
2022/02/15 12:31:31;;;;;;;2.70;2.05;;;7.30;99.90;;;;;;5070063;28;20074;-68
2022/02/15 12:33:56;;;;;;;4.53;2.20;;;7.30;99.90;;;;;;5068820;28;20041;-68
2022/02/15 12:36:22;;;;;;;2.28;1.95;;;7.30;99.90;;;;;;5071991;28;20031;-69
2022/02/15 12:38:51;;;;;;;3.75;2.13;;;7.30;99.90;;;;;;5081680;28;20095;-69
2022/02/15 12:41:19;;;;;;;1.98;1.67;;;7.30;99.90;;;;;;5093760;28;20036;-70
2022/02/15 12:43:46;;;;;;;2.00;1.27;;;7.20;99.90;;;;;;5093552;28;20024;-68
2022/02/15 12:46:12;;;;;;;3.13;1.48;;;7.20;99.90;;;;;;5083875;28;20059;-68
2022/02/15 12:48:37;;;;;;;8.98;5.97;;;7.10;99.90;;;;;;5071925;28;20091;-68
2022/02/15 12:51:04;;;;;;;3.20;2.60;;;7.10;99.90;;;;;;5073261;28;20475;-68
2022/02/15 12:53:30;;;;;;;6.75;5.22;;;7.00;99.90;;;;;;5074114;28;20048;-68
2022/02/15 12:55:56;;;;;;;2.80;2.60;;;7.00;99.90;;;;;;5073976;28;20024;-69
2022/02/15 12:58:22;;;;;;;2.42;2.22;;;6.90;99.90;;;;;;5072126;28;20016;-69
2022/02/15 13:00:48;;;;;;;1.50;1.40;;;6.90;99.90;;;;;;5072861;28;20044;-68
2022/02/15 13:03:20;;;;;;;3.72;1.42;;;6.90;99.90;;;;;;5054759;28;20025;-69